Point Hope, AK

1:50 PM AKDT on August 31, 2015 (GMT -0800)
Cape Lisburne LRRS | | Change Station
CLOSE
Current Station
Airport
Location: Cape Lisburne,
Elevation: 10 ft
Nearby Weather Stations

Elev 10 ft 68.88 °N, 166.13 °W | Updated 55 minutes ago

Scattered Clouds
Scattered Clouds
43 °F
Feels Like 38 °F
N
8
Wind Variable Wind from South

Today
High -- | Low -- °F
--% Chance of Precip.
Yesterday
High -- | Low -- °F
Precip. -- in
7:22 AM 10:44 PM
Waning Gibbous, 93% visible
Pressure 29.96 in
Visibility 10.0 miles
Clouds Few 2500 ft
Scattered Clouds 10000 ft
Windchill 38 °F
Dew Point 34 °F
Humidity 70%
Rainfall 0.00 in
Snow Depth Not available.
UV 2 out of 12
Pollen Not available.
Air Quality Not available.
Flu Activity Not available.
METAR PALU 312055Z AUTO 18007KT 10SM FEW025 SCT100 06/01 A2996 RMK AO2 SLP145 T00590009 52008
Pressure 29.96 in
Visibility 10.0 miles
Clouds Few 2500 ft
Scattered Clouds 10000 ft
Windchill 38 °F
Dew Point 34 °F
Humidity 70%
Rainfall 0.00 in
Snow Depth Not available.
UV 2 out of 12
Pollen Not available.
Air Quality Not available.
Flu Activity Not available.
METAR PALU 312055Z AUTO 18007KT 10SM FEW025 SCT100 06/01 A2996 RMK AO2 SLP145 T00590009 52008

10-Day Weather Forecast

×

Almanac

Astronomy

Aug. 31, 2015 Rise Set
Actual Time
Civil Twilight
Nautical Twilight
Astronomical Twilight
Moon
Length of Visible Light
Length of Day
Tomorrow will be .
, % of the Moon is Illuminated

Today's Extremes

State Highs State Lows

Community

WunderPhotos

Upload Photos

1,851,377 photos uploaded!

WunderBlogs® & News

Nearby

Air Quality

  Air Quality AQ Index Pollutant
Not available.

Snow Depth

Station Depth Elevation

Earthquake Activity

City Distance Mag. Time & Date
Minimum magnitude displayed is 2.5.

Coastal Water Temperatures

Place Temperature

Stations

Nearby Weather Stations

Station Location Temp. Windchill Dew Point Humidity Wind Precip. Elev Updated Type